Whitacre, Virginia
Current Conditions -  °F | °C
As of 3:53 AM on Saturday 20 Dec 2014 (Local Time) from KMRB Reporting Station
Clear Clear  
Wind Chill: 20°   Ceiling: Unl
Heat Index: 20°   Visibility: 9mi
Dew Point: 14°   Wind: 3mph
Humidity: 78%   Direction: 40°NE
Pressure: 30.24"   Gusts: NA
Location:  39.3835°N, 78.3051°W
Report Text: KMRB 200853Z AUTO 04003KT 9SM CLR M07/M10 A3024 RMK AO2 SLP248 T10671100 50001 TSNO
Loading
Personal Weather Stations






























Interactive Weather Map New forecast layout! Learn more

10-Day Weather Forecast

Advertisements
Track Severe Weather on mobile